sensor_id;sensor_type;location;lat;lon;timestamp;pressure;altitude;pressure_sealevel;temperature;humidity
75942;BME280;64622;46.220;19.878;2023-03-23T00:01:13;100439.19;;;4.84;92.26
75942;BME280;64622;46.220;19.878;2023-03-23T00:03:41;100443.03;;;4.80;92.03
75942;BME280;64622;46.220;19.878;2023-03-23T00:06:08;100442.66;;;4.85;91.72
75942;BME280;64622;46.220;19.878;2023-03-23T00:08:37;100441.25;;;4.92;91.43
75942;BME280;64622;46.220;19.878;2023-03-23T00:11:04;100443.41;;;5.09;90.60
75942;BME280;64622;46.220;19.878;2023-03-23T00:13:31;100446.91;;;5.09;90.44
75942;BME280;64622;46.220;19.878;2023-03-23T00:15:59;100440.16;;;5.05;90.45
75942;BME280;64622;46.220;19.878;2023-03-23T00:18:26;100427.72;;;4.95;90.37
75942;BME280;64622;46.220;19.878;2023-03-23T00:20:56;100436.28;;;4.87;91.21
75942;BME280;64622;46.220;19.878;2023-03-23T00:23:24;100439.53;;;4.80;91.31
75942;BME280;64622;46.220;19.878;2023-03-23T00:25:54;100440.37;;;4.80;91.21
75942;BME280;64622;46.220;19.878;2023-03-23T00:28:26;100436.38;;;4.75;91.73
75942;BME280;64622;46.220;19.878;2023-03-23T00:31:04;100434.59;;;4.64;91.78
75942;BME280;64622;46.220;19.878;2023-03-23T00:33:36;100428.03;;;4.57;91.63
75942;BME280;64622;46.220;19.878;2023-03-23T00:36:15;100435.78;;;4.60;92.01
75942;BME280;64622;46.220;19.878;2023-03-23T00:38:44;100435.66;;;4.62;92.22
75942;BME280;64622;46.220;19.878;2023-03-23T00:41:11;100434.19;;;4.47;92.71
75942;BME280;64622;46.220;19.878;2023-03-23T00:43:38;100434.03;;;4.37;93.58
75942;BME280;64622;46.220;19.878;2023-03-23T00:46:05;100423.50;;;4.25;94.11
75942;BME280;64622;46.220;19.878;2023-03-23T00:48:37;100417.22;;;4.15;94.87
75942;BME280;64622;46.220;19.878;2023-03-23T00:51:11;100421.06;;;4.11;95.35
75942;BME280;64622;46.220;19.878;2023-03-23T00:53:39;100417.28;;;4.02;95.96
75942;BME280;64622;46.220;19.878;2023-03-23T00:56:07;100417.75;;;3.96;96.06
75942;BME280;64622;46.220;19.878;2023-03-23T00:58:35;100407.94;;;4.09;95.88
75942;BME280;64622;46.220;19.878;2023-03-23T01:01:03;100409.25;;;4.04;96.28
75942;BME280;64622;46.220;19.878;2023-03-23T01:03:30;100412.97;;;4.01;96.21
75942;BME280;64622;46.220;19.878;2023-03-23T01:06:06;100415.16;;;4.07;96.39
75942;BME280;64622;46.220;19.878;2023-03-23T01:08:34;100405.50;;;4.06;96.77
75942;BME280;64622;46.220;19.878;2023-03-23T01:11:04;100414.81;;;4.12;96.40
75942;BME280;64622;46.220;19.878;2023-03-23T01:13:32;100409.06;;;4.18;95.77
75942;BME280;64622;46.220;19.878;2023-03-23T01:15:58;100407.63;;;4.36;94.78
75942;BME280;64622;46.220;19.878;2023-03-23T01:18:25;100417.16;;;4.38;94.36
75942;BME280;64622;46.220;19.878;2023-03-23T01:20:52;100409.28;;;4.26;94.58
75942;BME280;64622;46.220;19.878;2023-03-23T01:23:19;100411.94;;;4.26;94.54
75942;BME280;64622;46.220;19.878;2023-03-23T01:25:46;100414.25;;;4.30;94.03
75942;BME280;64622;46.220;19.878;2023-03-23T01:28:13;100401.31;;;4.15;93.70
75942;BME280;64622;46.220;19.878;2023-03-23T01:30:40;100417.56;;;4.10;94.46
75942;BME280;64622;46.220;19.878;2023-03-23T01:33:06;100404.91;;;4.03;94.87
75942;BME280;64622;46.220;19.878;2023-03-23T01:35:36;100411.53;;;4.08;94.62
75942;BME280;64622;46.220;19.878;2023-03-23T01:38:03;100412.03;;;4.13;94.74
75942;BME280;64622;46.220;19.878;2023-03-23T01:40:30;100408.47;;;4.25;94.54
75942;BME280;64622;46.220;19.878;2023-03-23T01:42:57;100394.62;;;4.22;94.04
75942;BME280;64622;46.220;19.878;2023-03-23T01:45:34;100403.97;;;4.15;94.30
75942;BME280;64622;46.220;19.878;2023-03-23T01:50:39;100412.66;;;4.17;94.61
75942;BME280;64622;46.220;19.878;2023-03-23T01:53:09;100413.37;;;4.19;94.54
75942;BME280;64622;46.220;19.878;2023-03-23T01:55:39;100414.09;;;4.21;94.64
75942;BME280;64622;46.220;19.878;2023-03-23T01:58:09;100417.81;;;4.18;95.12
75942;BME280;64622;46.220;19.878;2023-03-23T02:00:38;100408.66;;;4.11;96.23
75942;BME280;64622;46.220;19.878;2023-03-23T02:03:08;100409.75;;;4.09;97.03
75942;BME280;64622;46.220;19.878;2023-03-23T02:05:39;100402.97;;;4.05;96.98
75942;BME280;64622;46.220;19.878;2023-03-23T02:08:08;100399.22;;;3.96;97.08
75942;BME280;64622;46.220;19.878;2023-03-23T02:10:37;100404.06;;;4.02;98.06
75942;BME280;64622;46.220;19.878;2023-03-23T02:13:06;100396.00;;;4.04;97.55
75942;BME280;64622;46.220;19.878;2023-03-23T02:15:47;100408.94;;;4.19;96.21
75942;BME280;64622;46.220;19.878;2023-03-23T02:27:25;100402.13;;;4.61;95.05
75942;BME280;64622;46.220;19.878;2023-03-23T02:33:17;100408.28;;;4.50;95.10
75942;BME280;64622;46.220;19.878;2023-03-23T02:36:00;100407.63;;;4.36;96.58
75942;BME280;64622;46.220;19.878;2023-03-23T02:38:35;100415.56;;;4.25;96.63
75942;BME280;64622;46.220;19.878;2023-03-23T02:41:04;100419.97;;;4.13;96.38
75942;BME280;64622;46.220;19.878;2023-03-23T02:43:37;100422.91;;;3.87;97.21
75942;BME280;64622;46.220;19.878;2023-03-23T02:46:08;100416.81;;;3.74;97.51
75942;BME280;64622;46.220;19.878;2023-03-23T02:48:38;100407.84;;;3.64;97.47
75942;BME280;64622;46.220;19.878;2023-03-23T02:51:07;100419.81;;;3.69;97.86
75942;BME280;64622;46.220;19.878;2023-03-23T02:53:37;100412.53;;;3.60;97.82
75942;BME280;64622;46.220;19.878;2023-03-23T02:56:07;100411.28;;;3.53;97.23
75942;BME280;64622;46.220;19.878;2023-03-23T02:58:35;100416.41;;;3.67;97.24
75942;BME280;64622;46.220;19.878;2023-03-23T03:04:09;100418.16;;;3.56;96.85
75942;BME280;64622;46.220;19.878;2023-03-23T03:09:48;100422.81;;;3.52;96.83
75942;BME280;64622;46.220;19.878;2023-03-23T03:12:40;100420.00;;;3.43;97.37
75942;BME280;64622;46.220;19.878;2023-03-23T03:17:52;100415.72;;;3.29;97.43
75942;BME280;64622;46.220;19.878;2023-03-23T03:20:23;100414.56;;;3.21;97.85
75942;BME280;64622;46.220;19.878;2023-03-23T03:22:53;100420.50;;;3.24;98.66
75942;BME280;64622;46.220;19.878;2023-03-23T03:25:22;100418.59;;;3.14;98.92
75942;BME280;64622;46.220;19.878;2023-03-23T03:27:53;100431.62;;;3.17;99.09
75942;BME280;64622;46.220;19.878;2023-03-23T03:30:26;100431.28;;;3.21;98.89
75942;BME280;64622;46.220;19.878;2023-03-23T03:32:56;100428.22;;;3.15;99.24
75942;BME280;64622;46.220;19.878;2023-03-23T03:35:24;100433.09;;;3.08;99.96
75942;BME280;64622;46.220;19.878;2023-03-23T03:37:50;100425.69;;;3.01;99.36
75942;BME280;64622;46.220;19.878;2023-03-23T03:40:20;100438.91;;;3.13;99.07
75942;BME280;64622;46.220;19.878;2023-03-23T03:42:47;100435.09;;;3.17;98.96
75942;BME280;64622;46.220;19.878;2023-03-23T03:45:17;100432.88;;;3.11;98.67
75942;BME280;64622;46.220;19.878;2023-03-23T03:47:44;100443.78;;;3.19;98.27
75942;BME280;64622;46.220;19.878;2023-03-23T03:50:11;100430.97;;;3.13;98.98
75942;BME280;64622;46.220;19.878;2023-03-23T03:52:39;100427.37;;;3.27;98.57
75942;BME280;64622;46.220;19.878;2023-03-23T03:55:08;100440.56;;;3.39;97.90
75942;BME280;64622;46.220;19.878;2023-03-23T03:57:37;100431.41;;;3.43;97.30
75942;BME280;64622;46.220;19.878;2023-03-23T04:00:07;100434.38;;;3.51;97.31
75942;BME280;64622;46.220;19.878;2023-03-23T04:02:47;100421.66;;;3.56;98.11
75942;BME280;64622;46.220;19.878;2023-03-23T04:05:17;100433.34;;;3.65;98.20
75942;BME280;64622;46.220;19.878;2023-03-23T04:07:46;100428.81;;;3.67;98.33
75942;BME280;64622;46.220;19.878;2023-03-23T04:10:15;100431.50;;;3.78;98.51
75942;BME280;64622;46.220;19.878;2023-03-23T04:12:42;100440.13;;;3.92;98.65
75942;BME280;64622;46.220;19.878;2023-03-23T04:15:11;100431.00;;;3.96;98.51
75942;BME280;64622;46.220;19.878;2023-03-23T04:17:38;100434.59;;;3.95;98.66
75942;BME280;64622;46.220;19.878;2023-03-23T04:20:08;100434.16;;;4.01;99.00
75942;BME280;64622;46.220;19.878;2023-03-23T04:22:41;100431.59;;;4.00;99.90
75942;BME280;64622;46.220;19.878;2023-03-23T04:25:11;100436.00;;;3.88;100.00
75942;BME280;64622;46.220;19.878;2023-03-23T04:27:40;100430.25;;;3.71;100.00
75942;BME280;64622;46.220;19.878;2023-03-23T04:30:11;100434.78;;;3.58;100.00
75942;BME280;64622;46.220;19.878;2023-03-23T04:32:39;100440.72;;;3.49;100.00
75942;BME280;64622;46.220;19.878;2023-03-23T04:35:12;100439.72;;;3.26;100.00
75942;BME280;64622;46.220;19.878;2023-03-23T04:37:40;100442.81;;;3.20;100.00
75942;BME280;64622;46.220;19.878;2023-03-23T04:40:09;100433.41;;;3.16;100.00
75942;BME280;64622;46.220;19.878;2023-03-23T04:42:40;100452.03;;;3.15;100.00
75942;BME280;64622;46.220;19.878;2023-03-23T04:45:09;100439.41;;;3.18;100.00
75942;BME280;64622;46.220;19.878;2023-03-23T04:47:40;100437.84;;;3.16;100.00
75942;BME280;64622;46.220;19.878;2023-03-23T04:50:11;100447.28;;;3.07;100.00
75942;BME280;64622;46.220;19.878;2023-03-23T04:52:39;100435.75;;;2.96;100.00
75942;BME280;64622;46.220;19.878;2023-03-23T04:55:12;100435.66;;;2.97;100.00
75942;BME280;64622;46.220;19.878;2023-03-23T04:57:40;100441.47;;;3.02;100.00
75942;BME280;64622;46.220;19.878;2023-03-23T05:00:11;100436.91;;;3.17;100.00
75942;BME280;64622;46.220;19.878;2023-03-23T05:02:41;100435.06;;;3.30;100.00
75942;BME280;64622;46.220;19.878;2023-03-23T05:05:09;100437.63;;;3.55;100.00
75942;BME280;64622;46.220;19.878;2023-03-23T05:07:38;100435.50;;;3.83;100.00
75942;BME280;64622;46.220;19.878;2023-03-23T05:10:06;100443.59;;;4.16;100.00
75942;BME280;64622;46.220;19.878;2023-03-23T05:12:34;100446.56;;;4.46;98.23
75942;BME280;64622;46.220;19.878;2023-03-23T05:15:01;100442.00;;;4.48;96.16
75942;BME280;64622;46.220;19.878;2023-03-23T05:17:30;100440.22;;;4.71;96.01
75942;BME280;64622;46.220;19.878;2023-03-23T05:19:59;100455.81;;;4.97;96.20
75942;BME280;64622;46.220;19.878;2023-03-23T05:22:27;100451.34;;;5.31;92.17
75942;BME280;64622;46.220;19.878;2023-03-23T05:24:54;100445.12;;;5.63;91.98
75942;BME280;64622;46.220;19.878;2023-03-23T05:27:21;100446.47;;;5.80;92.12
75942;BME280;64622;46.220;19.878;2023-03-23T05:29:48;100456.66;;;6.27;89.67
75942;BME280;64622;46.220;19.878;2023-03-23T05:32:16;100456.16;;;6.53;86.87
75942;BME280;64622;46.220;19.878;2023-03-23T05:34:45;100462.06;;;6.78;87.85
75942;BME280;64622;46.220;19.878;2023-03-23T05:37:12;100465.53;;;7.19;88.07
75942;BME280;64622;46.220;19.878;2023-03-23T05:39:40;100457.66;;;7.57;85.72
75942;BME280;64622;46.220;19.878;2023-03-23T05:42:08;100467.72;;;8.02;84.03
75942;BME280;64622;46.220;19.878;2023-03-23T05:44:37;100454.44;;;8.31;85.56
75942;BME280;64622;46.220;19.878;2023-03-23T05:47:04;100474.53;;;8.54;84.51
75942;BME280;64622;46.220;19.878;2023-03-23T05:49:31;100460.59;;;8.13;82.58
75942;BME280;64622;46.220;19.878;2023-03-23T05:51:59;100472.25;;;8.69;83.37
75942;BME280;64622;46.220;19.878;2023-03-23T05:54:26;100467.34;;;8.36;82.04
75942;BME280;64622;46.220;19.878;2023-03-23T05:56:53;100473.50;;;8.65;81.04
75942;BME280;64622;46.220;19.878;2023-03-23T05:59:21;100467.87;;;8.58;81.04
75942;BME280;64622;46.220;19.878;2023-03-23T06:01:51;100476.06;;;8.57;81.73
75942;BME280;64622;46.220;19.878;2023-03-23T06:04:19;100475.66;;;9.07;81.07
75942;BME280;64622;46.220;19.878;2023-03-23T06:06:46;100475.91;;;9.23;80.06
75942;BME280;64622;46.220;19.878;2023-03-23T06:09:14;100480.00;;;9.54;78.02
75942;BME280;64622;46.220;19.878;2023-03-23T06:11:43;100479.75;;;9.75;78.23
75942;BME280;64622;46.220;19.878;2023-03-23T06:14:11;100482.09;;;9.24;78.90
75942;BME280;64622;46.220;19.878;2023-03-23T06:16:39;100485.63;;;9.24;78.63
75942;BME280;64622;46.220;19.878;2023-03-23T06:19:07;100490.44;;;9.48;78.17
75942;BME280;64622;46.220;19.878;2023-03-23T06:21:34;100479.28;;;9.62;77.59
75942;BME280;64622;46.220;19.878;2023-03-23T06:24:01;100481.16;;;9.52;78.43
75942;BME280;64622;46.220;19.878;2023-03-23T06:26:39;100484.34;;;9.82;77.82
75942;BME280;64622;46.220;19.878;2023-03-23T06:29:07;100478.25;;;9.90;76.05
75942;BME280;64622;46.220;19.878;2023-03-23T06:31:40;100492.69;;;10.06;76.21
75942;BME280;64622;46.220;19.878;2023-03-23T06:34:09;100494.37;;;10.60;73.76
75942;BME280;64622;46.220;19.878;2023-03-23T06:36:40;100485.34;;;10.43;75.29
75942;BME280;64622;46.220;19.878;2023-03-23T06:39:07;100490.38;;;11.07;73.21
75942;BME280;64622;46.220;19.878;2023-03-23T06:41:34;100494.44;;;11.11;72.88
75942;BME280;64622;46.220;19.878;2023-03-23T06:44:02;100491.37;;;11.06;73.25
75942;BME280;64622;46.220;19.878;2023-03-23T06:46:29;100497.59;;;11.06;72.31
75942;BME280;64622;46.220;19.878;2023-03-23T06:48:57;100503.00;;;11.14;71.97
75942;BME280;64622;46.220;19.878;2023-03-23T06:51:25;100489.38;;;11.59;70.84
75942;BME280;64622;46.220;19.878;2023-03-23T06:53:52;100498.37;;;11.24;71.71
75942;BME280;64622;46.220;19.878;2023-03-23T06:56:19;100490.84;;;11.53;70.67
75942;BME280;64622;46.220;19.878;2023-03-23T06:58:46;100484.47;;;11.54;70.95
75942;BME280;64622;46.220;19.878;2023-03-23T07:01:14;100483.16;;;11.92;70.49
75942;BME280;64622;46.220;19.878;2023-03-23T07:03:42;100501.00;;;12.17;70.30
75942;BME280;64622;46.220;19.878;2023-03-23T07:06:10;100498.88;;;12.36;69.55
75942;BME280;64622;46.220;19.878;2023-03-23T07:08:38;100498.63;;;11.98;70.72
75942;BME280;64622;46.220;19.878;2023-03-23T07:11:06;100503.88;;;12.23;70.62
75942;BME280;64622;46.220;19.878;2023-03-23T07:13:33;100508.13;;;12.90;69.54
75942;BME280;64622;46.220;19.878;2023-03-23T07:16:00;100498.75;;;12.78;68.20
75942;BME280;64622;46.220;19.878;2023-03-23T07:18:27;100502.09;;;12.80;68.57
75942;BME280;64622;46.220;19.878;2023-03-23T07:20:55;100504.44;;;13.15;67.50
75942;BME280;64622;46.220;19.878;2023-03-23T07:23:22;100498.37;;;13.13;66.72
75942;BME280;64622;46.220;19.878;2023-03-23T07:25:49;100507.87;;;13.55;67.49
75942;BME280;64622;46.220;19.878;2023-03-23T07:28:17;100508.84;;;13.70;65.90
75942;BME280;64622;46.220;19.878;2023-03-23T07:30:45;100511.34;;;13.72;66.56
75942;BME280;64622;46.220;19.878;2023-03-23T07:33:12;100509.53;;;14.03;65.80
75942;BME280;64622;46.220;19.878;2023-03-23T07:35:40;100509.34;;;14.43;63.78
75942;BME280;64622;46.220;19.878;2023-03-23T07:38:07;100512.84;;;14.13;63.52
75942;BME280;64622;46.220;19.878;2023-03-23T07:40:34;100498.16;;;14.31;64.43
75942;BME280;64622;46.220;19.878;2023-03-23T07:43:03;100498.56;;;14.88;63.19
75942;BME280;64622;46.220;19.878;2023-03-23T07:45:32;100502.72;;;15.79;61.06
75942;BME280;64622;46.220;19.878;2023-03-23T07:47:59;100501.72;;;15.51;59.81
75942;BME280;64622;46.220;19.878;2023-03-23T07:50:26;100503.84;;;15.04;61.25
75942;BME280;64622;46.220;19.878;2023-03-23T07:52:54;100503.41;;;15.29;60.44
75942;BME280;64622;46.220;19.878;2023-03-23T07:55:23;100499.19;;;15.64;59.99
75942;BME280;64622;46.220;19.878;2023-03-23T07:57:53;100516.09;;;16.01;59.11
75942;BME280;64622;46.220;19.878;2023-03-23T08:00:21;100516.41;;;15.92;58.32
75942;BME280;64622;46.220;19.878;2023-03-23T08:02:53;100515.09;;;16.38;57.45
75942;BME280;64622;46.220;19.878;2023-03-23T08:05:22;100518.78;;;16.16;58.14
75942;BME280;64622;46.220;19.878;2023-03-23T08:07:54;100510.25;;;15.83;58.59
75942;BME280;64622;46.220;19.878;2023-03-23T08:10:23;100513.41;;;16.51;57.50
75942;BME280;64622;46.220;19.878;2023-03-23T08:12:52;100504.28;;;16.52;56.75
75942;BME280;64622;46.220;19.878;2023-03-23T08:15:21;100506.84;;;16.81;55.91
75942;BME280;64622;46.220;19.878;2023-03-23T08:17:49;100515.53;;;16.56;56.78
75942;BME280;64622;46.220;19.878;2023-03-23T08:20:18;100507.94;;;16.87;54.51
75942;BME280;64622;46.220;19.878;2023-03-23T08:22:52;100510.44;;;17.09;55.42
75942;BME280;64622;46.220;19.878;2023-03-23T08:25:23;100509.91;;;17.75;55.13
75942;BME280;64622;46.220;19.878;2023-03-23T08:27:54;100513.31;;;17.50;54.75
75942;BME280;64622;46.220;19.878;2023-03-23T08:30:22;100501.25;;;17.52;53.11
75942;BME280;64622;46.220;19.878;2023-03-23T08:32:50;100494.84;;;17.11;54.36
75942;BME280;64622;46.220;19.878;2023-03-23T08:35:19;100499.75;;;17.22;54.31
75942;BME280;64622;46.220;19.878;2023-03-23T08:37:46;100503.28;;;17.50;53.58
75942;BME280;64622;46.220;19.878;2023-03-23T08:40:20;100500.41;;;18.33;51.08
75942;BME280;64622;46.220;19.878;2023-03-23T08:42:49;100504.47;;;18.82;49.12
75942;BME280;64622;46.220;19.878;2023-03-23T08:45:22;100509.50;;;17.44;51.84
75942;BME280;64622;46.220;19.878;2023-03-23T08:47:50;100507.00;;;17.77;51.61
75942;BME280;64622;46.220;19.878;2023-03-23T08:50:22;100500.97;;;19.27;48.94
75942;BME280;64622;46.220;19.878;2023-03-23T08:52:51;100522.84;;;18.20;48.74
75942;BME280;64622;46.220;19.878;2023-03-23T08:55:20;100520.66;;;18.03;47.64
75942;BME280;64622;46.220;19.878;2023-03-23T08:57:48;100508.63;;;18.12;47.71
75942;BME280;64622;46.220;19.878;2023-03-23T09:00:18;100503.03;;;19.51;45.84
75942;BME280;64622;46.220;19.878;2023-03-23T09:02:49;100505.75;;;18.93;43.28
75942;BME280;64622;46.220;19.878;2023-03-23T09:05:19;100505.75;;;18.93;44.91
75942;BME280;64622;46.220;19.878;2023-03-23T09:07:56;100504.28;;;18.97;44.94
75942;BME280;64622;46.220;19.878;2023-03-23T09:10:28;100499.66;;;19.82;42.37
75942;BME280;64622;46.220;19.878;2023-03-23T09:12:56;100495.50;;;18.95;44.05
75942;BME280;64622;46.220;19.878;2023-03-23T09:15:24;100509.47;;;18.72;43.03
75942;BME280;64622;46.220;19.878;2023-03-23T09:17:52;100509.09;;;18.88;41.84
75942;BME280;64622;46.220;19.878;2023-03-23T09:20:22;100506.34;;;19.66;39.47
75942;BME280;64622;46.220;19.878;2023-03-23T09:22:52;100505.53;;;18.88;42.64
75942;BME280;64622;46.220;19.878;2023-03-23T09:25:22;100500.97;;;19.53;40.17
75942;BME280;64622;46.220;19.878;2023-03-23T09:27:55;100498.84;;;19.68;39.51
75942;BME280;64622;46.220;19.878;2023-03-23T09:30:25;100501.22;;;21.21;36.17
75942;BME280;64622;46.220;19.878;2023-03-23T09:32:53;100503.62;;;20.36;37.66
75942;BME280;64622;46.220;19.878;2023-03-23T09:35:21;100509.16;;;20.23;37.75
75942;BME280;64622;46.220;19.878;2023-03-23T09:37:50;100501.28;;;21.57;33.80
75942;BME280;64622;46.220;19.878;2023-03-23T09:40:22;100504.84;;;20.47;38.82
75942;BME280;64622;46.220;19.878;2023-03-23T09:45:48;100492.81;;;20.61;39.40
75942;BME280;64622;46.220;19.878;2023-03-23T09:49:08;100499.34;;;20.53;37.88
75942;BME280;64622;46.220;19.878;2023-03-23T09:51:28;100494.91;;;20.65;36.49
75942;BME280;64622;46.220;19.878;2023-03-23T09:54:31;100501.25;;;20.09;38.38
75942;BME280;64622;46.220;19.878;2023-03-23T09:57:01;100480.94;;;22.50;33.61
75942;BME280;64622;46.220;19.878;2023-03-23T09:59:41;100488.19;;;21.66;34.79
75942;BME280;64622;46.220;19.878;2023-03-23T10:02:16;100482.62;;;20.81;36.02
75942;BME280;64622;46.220;19.878;2023-03-23T10:07:24;100486.56;;;20.23;36.77
75942;BME280;64622;46.220;19.878;2023-03-23T10:09:56;100493.25;;;21.44;35.85
75942;BME280;64622;46.220;19.878;2023-03-23T10:15:14;100475.03;;;20.58;36.02
75942;BME280;64622;46.220;19.878;2023-03-23T10:20:34;100474.84;;;20.60;35.91
75942;BME280;64622;46.220;19.878;2023-03-23T10:23:11;100476.97;;;20.82;36.36
75942;BME280;64622;46.220;19.878;2023-03-23T10:25:48;100480.03;;;21.23;35.36
75942;BME280;64622;46.220;19.878;2023-03-23T10:28:20;100465.06;;;20.52;35.37
75942;BME280;64622;46.220;19.878;2023-03-23T10:30:51;100480.44;;;21.27;34.78
75942;BME280;64622;46.220;19.878;2023-03-23T10:33:36;100471.56;;;20.07;35.24
75942;BME280;64622;46.220;19.878;2023-03-23T10:38:39;100476.41;;;21.05;34.80
75942;BME280;64622;46.220;19.878;2023-03-23T10:41:19;100477.66;;;21.09;34.90
75942;BME280;64622;46.220;19.878;2023-03-23T10:43:46;100476.59;;;21.95;33.79
75942;BME280;64622;46.220;19.878;2023-03-23T10:49:18;100473.25;;;21.32;33.06
75942;BME280;64622;46.220;19.878;2023-03-23T10:51:54;100461.31;;;20.16;36.56
75942;BME280;64622;46.220;19.878;2023-03-23T10:54:31;100471.47;;;21.44;33.40
75942;BME280;64622;46.220;19.878;2023-03-23T10:56:58;100455.34;;;20.69;34.53
75942;BME280;64622;46.220;19.878;2023-03-23T10:59:30;100454.97;;;20.59;35.85
75942;BME280;64622;46.220;19.878;2023-03-23T11:02:02;100458.75;;;21.14;33.53
75942;BME280;64622;46.220;19.878;2023-03-23T11:04:30;100454.75;;;21.16;33.79
75942;BME280;64622;46.220;19.878;2023-03-23T11:07:01;100457.97;;;21.31;33.63
75942;BME280;64622;46.220;19.878;2023-03-23T11:09:35;100444.56;;;20.81;34.33
75942;BME280;64622;46.220;19.878;2023-03-23T11:12:04;100446.75;;;20.66;36.01
75942;BME280;64622;46.220;19.878;2023-03-23T11:14:33;100436.34;;;21.36;33.89
75942;BME280;64622;46.220;19.878;2023-03-23T11:17:02;100430.03;;;22.96;31.69
75942;BME280;64622;46.220;19.878;2023-03-23T11:19:36;100426.97;;;23.04;30.79
75942;BME280;64622;46.220;19.878;2023-03-23T11:24:37;100437.66;;;22.06;33.98
75942;BME280;64622;46.220;19.878;2023-03-23T11:27:08;100429.66;;;22.22;32.55
75942;BME280;64622;46.220;19.878;2023-03-23T11:29:52;100417.50;;;22.66;31.92
75942;BME280;64622;46.220;19.878;2023-03-23T11:32:24;100412.50;;;22.22;32.97
75942;BME280;64622;46.220;19.878;2023-03-23T11:34:56;100406.34;;;21.97;33.49
75942;BME280;64622;46.220;19.878;2023-03-23T11:40:15;100401.34;;;21.94;34.61
75942;BME280;64622;46.220;19.878;2023-03-23T11:43:25;100397.31;;;21.24;33.89
75942;BME280;64622;46.220;19.878;2023-03-23T11:46:05;100393.47;;;21.50;33.57
75942;BME280;64622;46.220;19.878;2023-03-23T11:48:53;100394.72;;;22.19;32.89
75942;BME280;64622;46.220;19.878;2023-03-23T11:51:47;100386.69;;;23.57;30.19
75942;BME280;64622;46.220;19.878;2023-03-23T11:54:39;100386.94;;;22.34;31.68
75942;BME280;64622;46.220;19.878;2023-03-23T11:57:09;100380.16;;;21.78;32.93
75942;BME280;64622;46.220;19.878;2023-03-23T11:59:37;100367.97;;;22.80;31.94
75942;BME280;64622;46.220;19.878;2023-03-23T12:07:56;100378.25;;;21.42;34.15
75942;BME280;64622;46.220;19.878;2023-03-23T12:10:36;100378.69;;;21.93;32.26
75942;BME280;64622;46.220;19.878;2023-03-23T12:22:24;100361.28;;;21.58;32.49
75942;BME280;64622;46.220;19.878;2023-03-23T12:30:20;100345.37;;;22.21;32.55
75942;BME280;64622;46.220;19.878;2023-03-23T12:41:12;100344.59;;;21.73;33.46
75942;BME280;64622;46.220;19.878;2023-03-23T12:57:12;100334.97;;;21.52;34.30
75942;BME280;64622;46.220;19.878;2023-03-23T12:59:50;100335.97;;;21.04;35.36
75942;BME280;64622;46.220;19.878;2023-03-23T13:05:40;100330.22;;;21.12;34.64
75942;BME280;64622;46.220;19.878;2023-03-23T13:08:16;100311.75;;;20.22;36.15
75942;BME280;64622;46.220;19.878;2023-03-23T13:10:49;100319.81;;;20.35;36.05
75942;BME280;64622;46.220;19.878;2023-03-23T13:13:22;100325.84;;;20.13;36.56
75942;BME280;64622;46.220;19.878;2023-03-23T13:21:27;100302.69;;;20.59;36.63
75942;BME280;64622;46.220;19.878;2023-03-23T13:26:30;100297.19;;;20.17;37.61
75942;BME280;64622;46.220;19.878;2023-03-23T13:29:05;100302.28;;;20.56;36.56
75942;BME280;64622;46.220;19.878;2023-03-23T13:31:38;100294.63;;;19.91;37.30
75942;BME280;64622;46.220;19.878;2023-03-23T13:34:18;100297.63;;;19.76;38.28
75942;BME280;64622;46.220;19.878;2023-03-23T13:36:58;100302.88;;;19.71;38.26
75942;BME280;64622;46.220;19.878;2023-03-23T13:40:29;100292.62;;;19.73;38.67
75942;BME280;64622;46.220;19.878;2023-03-23T13:42:27;100295.22;;;19.55;38.62
75942;BME280;64622;46.220;19.878;2023-03-23T13:45:07;100301.78;;;19.79;38.34
75942;BME280;64622;46.220;19.878;2023-03-23T13:47:41;100300.16;;;20.09;38.06
75942;BME280;64622;46.220;19.878;2023-03-23T13:57:52;100291.28;;;22.59;33.95
75942;BME280;64622;46.220;19.878;2023-03-23T14:03:13;100302.47;;;21.39;35.61
75942;BME280;64622;46.220;19.878;2023-03-23T14:11:16;100299.66;;;20.92;35.43
75942;BME280;64622;46.220;19.878;2023-03-23T14:16:26;100288.31;;;21.31;34.45
75942;BME280;64622;46.220;19.878;2023-03-23T14:21:40;100286.75;;;21.71;34.30
75942;BME280;64622;46.220;19.878;2023-03-23T14:24:12;100279.44;;;20.14;37.84
75942;BME280;64622;46.220;19.878;2023-03-23T14:26:41;100282.47;;;20.49;36.72
75942;BME280;64622;46.220;19.878;2023-03-23T14:29:11;100287.13;;;20.17;37.40
75942;BME280;64622;46.220;19.878;2023-03-23T14:31:39;100285.19;;;19.93;37.72
75942;BME280;64622;46.220;19.878;2023-03-23T14:34:13;100289.84;;;19.80;37.62
75942;BME280;64622;46.220;19.878;2023-03-23T14:36:42;100291.41;;;20.00;37.57
75942;BME280;64622;46.220;19.878;2023-03-23T14:39:28;100285.41;;;19.54;38.62
75942;BME280;64622;46.220;19.878;2023-03-23T14:42:01;100303.50;;;19.73;38.41
75942;BME280;64622;46.220;19.878;2023-03-23T14:44:32;100292.56;;;19.80;38.88
75942;BME280;64622;46.220;19.878;2023-03-23T14:47:04;100287.75;;;19.88;38.20
75942;BME280;64622;46.220;19.878;2023-03-23T14:49:37;100291.31;;;19.82;38.49
75942;BME280;64622;46.220;19.878;2023-03-23T14:52:14;100295.19;;;20.30;37.71
75942;BME280;64622;46.220;19.878;2023-03-23T14:54:43;100299.06;;;20.83;36.22
75942;BME280;64622;46.220;19.878;2023-03-23T14:57:16;100298.06;;;21.02;35.94
75942;BME280;64622;46.220;19.878;2023-03-23T14:59:47;100295.34;;;21.02;35.86
75942;BME280;64622;46.220;19.878;2023-03-23T15:02:36;100295.72;;;21.06;36.13